sensor_id;sensor_type;location;lat;lon;timestamp;temperature;humidity
67133;HTU21D;54052;53.542;49.408;2022-09-09T00:01:33;9.19;90.31
67133;HTU21D;54052;53.542;49.408;2022-09-09T00:04:25;9.20;90.38
67133;HTU21D;54052;53.542;49.408;2022-09-09T00:07:15;9.20;90.63
67133;HTU21D;54052;53.542;49.408;2022-09-09T00:15:11;9.21;90.67
67133;HTU21D;54052;53.542;49.408;2022-09-09T00:25:37;9.11;91.28
67133;HTU21D;54052;53.542;49.408;2022-09-09T00:28:18;9.15;90.96
67133;HTU21D;54052;53.542;49.408;2022-09-09T00:30:46;9.16;91.03
67133;HTU21D;54052;53.542;49.408;2022-09-09T00:33:16;9.15;91.12
67133;HTU21D;54052;53.542;49.408;2022-09-09T00:35:53;9.17;90.92
67133;HTU21D;54052;53.542;49.408;2022-09-09T00:43:40;9.29;90.24
67133;HTU21D;54052;53.542;49.408;2022-09-09T00:46:32;9.27;90.58
67133;HTU21D;54052;53.542;49.408;2022-09-09T00:57:32;9.38;90.71
67133;HTU21D;54052;53.542;49.408;2022-09-09T01:00:17;9.37;90.26
67133;HTU21D;54052;53.542;49.408;2022-09-09T01:05:45;9.37;90.15
67133;HTU21D;54052;53.542;49.408;2022-09-09T01:08:36;9.41;90.31
67133;HTU21D;54052;53.542;49.408;2022-09-09T01:11:05;9.35;89.98
67133;HTU21D;54052;53.542;49.408;2022-09-09T01:13:35;9.27;90.63
67133;HTU21D;54052;53.542;49.408;2022-09-09T01:16:03;9.26;90.69
67133;HTU21D;54052;53.542;49.408;2022-09-09T01:18:39;9.22;91.06
67133;HTU21D;54052;53.542;49.408;2022-09-09T01:27:15;9.15;90.90
67133;HTU21D;54052;53.542;49.408;2022-09-09T01:29:41;9.14;90.79
67133;HTU21D;54052;53.542;49.408;2022-09-09T01:38:11;9.03;91.34
67133;HTU21D;54052;53.542;49.408;2022-09-09T01:40:38;8.97;91.66
67133;HTU21D;54052;53.542;49.408;2022-09-09T01:43:04;8.96;91.78
67133;HTU21D;54052;53.542;49.408;2022-09-09T01:45:31;8.94;91.38
67133;HTU21D;54052;53.542;49.408;2022-09-09T01:47:57;8.90;91.88
67133;HTU21D;54052;53.542;49.408;2022-09-09T01:50:23;8.82;91.86
67133;HTU21D;54052;53.542;49.408;2022-09-09T01:52:53;8.83;92.15
67133;HTU21D;54052;53.542;49.408;2022-09-09T01:55:40;8.85;92.04
67133;HTU21D;54052;53.542;49.408;2022-09-09T01:58:29;8.87;91.94
67133;HTU21D;54052;53.542;49.408;2022-09-09T02:01:17;8.83;91.73
67133;HTU21D;54052;53.542;49.408;2022-09-09T02:03:52;8.89;91.89
67133;HTU21D;54052;53.542;49.408;2022-09-09T02:06:30;8.89;91.61
67133;HTU21D;54052;53.542;49.408;2022-09-09T02:09:02;8.88;91.63
67133;HTU21D;54052;53.542;49.408;2022-09-09T02:11:30;8.90;91.63
67133;HTU21D;54052;53.542;49.408;2022-09-09T02:14:18;8.92;91.58
67133;HTU21D;54052;53.542;49.408;2022-09-09T02:16:56;8.93;91.60
67133;HTU21D;54052;53.542;49.408;2022-09-09T02:19:32;8.91;91.21
67133;HTU21D;54052;53.542;49.408;2022-09-09T02:22:00;8.90;91.15
67133;HTU21D;54052;53.542;49.408;2022-09-09T02:24:30;8.86;90.93
67133;HTU21D;54052;53.542;49.408;2022-09-09T02:26:58;8.88;91.68
67133;HTU21D;54052;53.542;49.408;2022-09-09T02:29:29;8.93;91.24
67133;HTU21D;54052;53.542;49.408;2022-09-09T02:31:59;8.89;90.79
67133;HTU21D;54052;53.542;49.408;2022-09-09T02:34:28;8.89;90.79
67133;HTU21D;54052;53.542;49.408;2022-09-09T02:36:57;8.87;91.15
67133;HTU21D;54052;53.542;49.408;2022-09-09T02:39:25;8.93;91.33
67133;HTU21D;54052;53.542;49.408;2022-09-09T02:41:51;8.97;91.30
67133;HTU21D;54052;53.542;49.408;2022-09-09T02:44:18;9.00;91.23
67133;HTU21D;54052;53.542;49.408;2022-09-09T02:53:02;9.18;90.24
67133;HTU21D;54052;53.542;49.408;2022-09-09T02:55:45;9.14;90.00
67133;HTU21D;54052;53.542;49.408;2022-09-09T02:58:14;9.19;90.08
67133;HTU21D;54052;53.542;49.408;2022-09-09T03:00:43;9.21;90.51
67133;HTU21D;54052;53.542;49.408;2022-09-09T03:03:10;9.26;90.55
67133;HTU21D;54052;53.542;49.408;2022-09-09T03:05:36;9.36;89.90
67133;HTU21D;54052;53.542;49.408;2022-09-09T03:08:03;9.39;89.47
67133;HTU21D;54052;53.542;49.408;2022-09-09T03:10:29;9.42;89.98
67133;HTU21D;54052;53.542;49.408;2022-09-09T03:12:56;9.46;89.58
67133;HTU21D;54052;53.542;49.408;2022-09-09T03:15:22;9.49;89.22
67133;HTU21D;54052;53.542;49.408;2022-09-09T03:17:48;9.59;88.18
67133;HTU21D;54052;53.542;49.408;2022-09-09T03:20:14;9.69;88.02
67133;HTU21D;54052;53.542;49.408;2022-09-09T03:22:40;9.81;87.20
67133;HTU21D;54052;53.542;49.408;2022-09-09T03:25:06;10.01;86.05
67133;HTU21D;54052;53.542;49.408;2022-09-09T03:27:33;10.08;85.70
67133;HTU21D;54052;53.542;49.408;2022-09-09T03:29:59;9.98;85.55
67133;HTU21D;54052;53.542;49.408;2022-09-09T03:32:24;9.90;85.93
67133;HTU21D;54052;53.542;49.408;2022-09-09T03:34:52;9.89;86.64
67133;HTU21D;54052;53.542;49.408;2022-09-09T03:37:19;9.96;86.81
67133;HTU21D;54052;53.542;49.408;2022-09-09T03:39:45;9.97;86.32
67133;HTU21D;54052;53.542;49.408;2022-09-09T03:42:15;10.07;87.43
67133;HTU21D;54052;53.542;49.408;2022-09-09T03:44:45;10.33;85.73
67133;HTU21D;54052;53.542;49.408;2022-09-09T03:47:17;10.42;85.07
67133;HTU21D;54052;53.542;49.408;2022-09-09T03:49:44;10.51;84.21
67133;HTU21D;54052;53.542;49.408;2022-09-09T03:52:11;10.53;84.49
67133;HTU21D;54052;53.542;49.408;2022-09-09T03:54:37;10.42;84.39
67133;HTU21D;54052;53.542;49.408;2022-09-09T03:57:03;10.38;85.61
67133;HTU21D;54052;53.542;49.408;2022-09-09T03:59:30;10.57;84.64
67133;HTU21D;54052;53.542;49.408;2022-09-09T04:01:56;10.48;84.49
67133;HTU21D;54052;53.542;49.408;2022-09-09T04:04:25;10.43;85.22
67133;HTU21D;54052;53.542;49.408;2022-09-09T04:06:52;10.48;84.42
67133;HTU21D;54052;53.542;49.408;2022-09-09T04:09:18;10.39;85.38
67133;HTU21D;54052;53.542;49.408;2022-09-09T04:11:46;10.28;85.80
67133;HTU21D;54052;53.542;49.408;2022-09-09T04:14:13;10.31;85.24
67133;HTU21D;54052;53.542;49.408;2022-09-09T04:16:39;10.26;86.04
67133;HTU21D;54052;53.542;49.408;2022-09-09T04:19:07;10.46;85.77
67133;HTU21D;54052;53.542;49.408;2022-09-09T04:21:33;10.55;84.55
67133;HTU21D;54052;53.542;49.408;2022-09-09T04:23:59;10.63;84.30
67133;HTU21D;54052;53.542;49.408;2022-09-09T04:26:25;10.60;84.52
67133;HTU21D;54052;53.542;49.408;2022-09-09T04:28:51;11.02;83.39
67133;HTU21D;54052;53.542;49.408;2022-09-09T04:31:19;11.51;81.80
67133;HTU21D;54052;53.542;49.408;2022-09-09T04:33:47;11.73;79.76
67133;HTU21D;54052;53.542;49.408;2022-09-09T04:36:13;11.72;79.46
67133;HTU21D;54052;53.542;49.408;2022-09-09T04:38:39;11.45;80.08
67133;HTU21D;54052;53.542;49.408;2022-09-09T04:41:06;11.36;80.20
67133;HTU21D;54052;53.542;49.408;2022-09-09T04:43:33;11.44;80.32
67133;HTU21D;54052;53.542;49.408;2022-09-09T04:45:59;11.71;78.96
67133;HTU21D;54052;53.542;49.408;2022-09-09T04:48:25;11.75;80.11
67133;HTU21D;54052;53.542;49.408;2022-09-09T04:50:58;11.83;78.95
67133;HTU21D;54052;53.542;49.408;2022-09-09T04:53:25;11.75;78.92
67133;HTU21D;54052;53.542;49.408;2022-09-09T04:55:52;11.64;79.15
67133;HTU21D;54052;53.542;49.408;2022-09-09T04:58:19;11.54;80.56
67133;HTU21D;54052;53.542;49.408;2022-09-09T05:00:47;11.46;80.07
67133;HTU21D;54052;53.542;49.408;2022-09-09T05:03:13;11.39;80.50
67133;HTU21D;54052;53.542;49.408;2022-09-09T05:05:39;11.47;80.65
67133;HTU21D;54052;53.542;49.408;2022-09-09T05:08:06;11.48;79.26
67133;HTU21D;54052;53.542;49.408;2022-09-09T05:10:33;11.30;80.11
67133;HTU21D;54052;53.542;49.408;2022-09-09T05:12:59;11.36;81.17
67133;HTU21D;54052;53.542;49.408;2022-09-09T05:15:25;11.51;80.38
67133;HTU21D;54052;53.542;49.408;2022-09-09T05:17:51;11.60;79.30
67133;HTU21D;54052;53.542;49.408;2022-09-09T05:20:20;11.88;79.32
67133;HTU21D;54052;53.542;49.408;2022-09-09T05:22:46;11.92;77.89
67133;HTU21D;54052;53.542;49.408;2022-09-09T05:25:12;11.57;78.42
67133;HTU21D;54052;53.542;49.408;2022-09-09T05:27:39;11.42;80.02
67133;HTU21D;54052;53.542;49.408;2022-09-09T05:30:06;11.32;80.25
67133;HTU21D;54052;53.542;49.408;2022-09-09T05:32:32;11.47;78.63
67133;HTU21D;54052;53.542;49.408;2022-09-09T05:34:59;11.64;78.14
67133;HTU21D;54052;53.542;49.408;2022-09-09T05:37:27;11.71;77.73
67133;HTU21D;54052;53.542;49.408;2022-09-09T05:39:53;11.96;78.56
67133;HTU21D;54052;53.542;49.408;2022-09-09T05:42:19;12.13;75.77
67133;HTU21D;54052;53.542;49.408;2022-09-09T05:44:45;12.18;75.34
67133;HTU21D;54052;53.542;49.408;2022-09-09T05:47:11;11.96;75.09
67133;HTU21D;54052;53.542;49.408;2022-09-09T05:49:37;11.70;76.68
67133;HTU21D;54052;53.542;49.408;2022-09-09T05:52:03;11.66;76.59
67133;HTU21D;54052;53.542;49.408;2022-09-09T05:54:29;11.88;74.59
67133;HTU21D;54052;53.542;49.408;2022-09-09T05:56:56;12.05;72.03
67133;HTU21D;54052;53.542;49.408;2022-09-09T05:59:21;12.36;73.07
67133;HTU21D;54052;53.542;49.408;2022-09-09T06:01:49;12.46;73.56
67133;HTU21D;54052;53.542;49.408;2022-09-09T06:04:15;12.35;72.70
67133;HTU21D;54052;53.542;49.408;2022-09-09T06:06:41;12.06;73.34
67133;HTU21D;54052;53.542;49.408;2022-09-09T06:09:09;12.06;73.93
67133;HTU21D;54052;53.542;49.408;2022-09-09T06:11:38;12.03;74.84
67133;HTU21D;54052;53.542;49.408;2022-09-09T06:14:05;12.00;75.06
67133;HTU21D;54052;53.542;49.408;2022-09-09T06:16:34;11.63;76.82
67133;HTU21D;54052;53.542;49.408;2022-09-09T06:19:00;11.34;79.75
67133;HTU21D;54052;53.542;49.408;2022-09-09T06:21:33;11.10;82.13
67133;HTU21D;54052;53.542;49.408;2022-09-09T06:24:00;10.84;84.35
67133;HTU21D;54052;53.542;49.408;2022-09-09T06:26:29;10.71;85.47
67133;HTU21D;54052;53.542;49.408;2022-09-09T06:28:56;10.69;84.80
67133;HTU21D;54052;53.542;49.408;2022-09-09T06:31:26;10.59;82.53
67133;HTU21D;54052;53.542;49.408;2022-09-09T06:33:57;10.53;82.49
67133;HTU21D;54052;53.542;49.408;2022-09-09T06:36:26;10.46;84.02
67133;HTU21D;54052;53.542;49.408;2022-09-09T06:38:52;10.34;84.95
67133;HTU21D;54052;53.542;49.408;2022-09-09T06:41:20;10.25;85.65
67133;HTU21D;54052;53.542;49.408;2022-09-09T06:43:46;10.40;84.18
67133;HTU21D;54052;53.542;49.408;2022-09-09T06:46:17;10.49;80.41
67133;HTU21D;54052;53.542;49.408;2022-09-09T06:48:44;10.57;80.81
67133;HTU21D;54052;53.542;49.408;2022-09-09T06:51:17;10.66;79.31
67133;HTU21D;54052;53.542;49.408;2022-09-09T06:53:45;10.87;79.68
67133;HTU21D;54052;53.542;49.408;2022-09-09T06:58:41;11.38;78.43
67133;HTU21D;54052;53.542;49.408;2022-09-09T07:01:12;11.77;77.84
67133;HTU21D;54052;53.542;49.408;2022-09-09T07:03:39;12.03;75.05
67133;HTU21D;54052;53.542;49.408;2022-09-09T07:06:06;12.05;75.50
67133;HTU21D;54052;53.542;49.408;2022-09-09T07:08:35;11.93;76.63
67133;HTU21D;54052;53.542;49.408;2022-09-09T07:11:06;11.94;77.50
67133;HTU21D;54052;53.542;49.408;2022-09-09T07:13:33;12.05;76.79
67133;HTU21D;54052;53.542;49.408;2022-09-09T07:16:07;12.06;75.69
67133;HTU21D;54052;53.542;49.408;2022-09-09T07:18:33;11.84;73.98
67133;HTU21D;54052;53.542;49.408;2022-09-09T07:21:01;11.93;75.87
67133;HTU21D;54052;53.542;49.408;2022-09-09T07:23:28;12.20;75.82
67133;HTU21D;54052;53.542;49.408;2022-09-09T07:25:54;12.37;73.20
67133;HTU21D;54052;53.542;49.408;2022-09-09T07:28:21;12.40;73.28
67133;HTU21D;54052;53.542;49.408;2022-09-09T07:31:04;12.35;75.83
67133;HTU21D;54052;53.542;49.408;2022-09-09T07:33:32;12.49;73.70
67133;HTU21D;54052;53.542;49.408;2022-09-09T07:36:15;12.64;71.48
67133;HTU21D;54052;53.542;49.408;2022-09-09T07:38:46;12.76;70.74
67133;HTU21D;54052;53.542;49.408;2022-09-09T07:41:18;12.58;70.99
67133;HTU21D;54052;53.542;49.408;2022-09-09T07:43:46;12.56;73.06
67133;HTU21D;54052;53.542;49.408;2022-09-09T07:46:14;12.41;71.08
67133;HTU21D;54052;53.542;49.408;2022-09-09T07:48:49;12.60;71.90
67133;HTU21D;54052;53.542;49.408;2022-09-09T07:51:19;12.62;70.43
67133;HTU21D;54052;53.542;49.408;2022-09-09T07:53:47;12.46;70.50
67133;HTU21D;54052;53.542;49.408;2022-09-09T07:56:16;12.35;69.89
67133;HTU21D;54052;53.542;49.408;2022-09-09T07:58:45;12.29;70.64
67133;HTU21D;54052;53.542;49.408;2022-09-09T08:01:23;12.34;73.20
67133;HTU21D;54052;53.542;49.408;2022-09-09T08:03:55;12.32;73.80
67133;HTU21D;54052;53.542;49.408;2022-09-09T08:06:21;12.23;72.62
67133;HTU21D;54052;53.542;49.408;2022-09-09T08:08:50;12.38;74.43
67133;HTU21D;54052;53.542;49.408;2022-09-09T08:11:17;12.59;72.41
67133;HTU21D;54052;53.542;49.408;2022-09-09T08:13:44;12.50;71.30
67133;HTU21D;54052;53.542;49.408;2022-09-09T08:16:16;12.11;68.61
67133;HTU21D;54052;53.542;49.408;2022-09-09T08:18:46;12.08;70.68
67133;HTU21D;54052;53.542;49.408;2022-09-09T08:21:16;12.27;72.45
67133;HTU21D;54052;53.542;49.408;2022-09-09T08:23:45;12.19;70.10
67133;HTU21D;54052;53.542;49.408;2022-09-09T08:26:13;11.75;72.32
67133;HTU21D;54052;53.542;49.408;2022-09-09T08:28:41;11.55;75.89
67133;HTU21D;54052;53.542;49.408;2022-09-09T08:31:13;11.63;76.50
67133;HTU21D;54052;53.542;49.408;2022-09-09T08:33:40;11.69;72.60
67133;HTU21D;54052;53.542;49.408;2022-09-09T08:36:09;11.49;71.51
67133;HTU21D;54052;53.542;49.408;2022-09-09T08:38:36;11.20;73.66
67133;HTU21D;54052;53.542;49.408;2022-09-09T08:52:15;12.34;67.28
67133;HTU21D;54052;53.542;49.408;2022-09-09T08:54:43;12.79;65.42
67133;HTU21D;54052;53.542;49.408;2022-09-09T08:57:14;13.00;64.61
67133;HTU21D;54052;53.542;49.408;2022-09-09T08:59:43;13.00;64.89
67133;HTU21D;54052;53.542;49.408;2022-09-09T09:05:28;12.58;65.30
67133;HTU21D;54052;53.542;49.408;2022-09-09T09:10:46;12.87;64.74
67133;HTU21D;54052;53.542;49.408;2022-09-09T09:19:01;12.88;66.12
67133;HTU21D;54052;53.542;49.408;2022-09-09T09:21:48;12.66;68.17
67133;HTU21D;54052;53.542;49.408;2022-09-09T09:24:37;12.06;68.01
67133;HTU21D;54052;53.542;49.408;2022-09-09T09:27:21;12.06;65.45
67133;HTU21D;54052;53.542;49.408;2022-09-09T09:29:54;12.13;68.02
67133;HTU21D;54052;53.542;49.408;2022-09-09T09:32:22;11.98;67.68
67133;HTU21D;54052;53.542;49.408;2022-09-09T09:34:53;11.87;67.80
67133;HTU21D;54052;53.542;49.408;2022-09-09T09:37:32;11.61;68.32
67133;HTU21D;54052;53.542;49.408;2022-09-09T09:40:18;11.58;71.21
67133;HTU21D;54052;53.542;49.408;2022-09-09T09:42:56;11.71;69.94
67133;HTU21D;54052;53.542;49.408;2022-09-09T09:45:27;11.64;69.88
67133;HTU21D;54052;53.542;49.408;2022-09-09T09:48:05;11.59;71.13
67133;HTU21D;54052;53.542;49.408;2022-09-09T09:50:32;11.72;70.10
67133;HTU21D;54052;53.542;49.408;2022-09-09T09:53:02;11.82;71.99
67133;HTU21D;54052;53.542;49.408;2022-09-09T09:55:29;11.94;72.38
67133;HTU21D;54052;53.542;49.408;2022-09-09T09:58:04;11.99;67.97
67133;HTU21D;54052;53.542;49.408;2022-09-09T10:00:32;12.07;65.72
67133;HTU21D;54052;53.542;49.408;2022-09-09T10:03:23;12.26;66.26
67133;HTU21D;54052;53.542;49.408;2022-09-09T10:05:49;12.44;64.87
67133;HTU21D;54052;53.542;49.408;2022-09-09T10:08:17;12.38;65.16
67133;HTU21D;54052;53.542;49.408;2022-09-09T10:32:46;12.97;69.19
67133;HTU21D;54052;53.542;49.408;2022-09-09T10:35:35;12.77;64.58
67133;HTU21D;54052;53.542;49.408;2022-09-09T10:38:16;12.58;65.96
67133;HTU21D;54052;53.542;49.408;2022-09-09T10:49:09;12.29;71.96
67133;HTU21D;54052;53.542;49.408;2022-09-09T10:58:09;11.88;73.12
67133;HTU21D;54052;53.542;49.408;2022-09-09T11:00:17;11.78;74.03
67133;HTU21D;54052;53.542;49.408;2022-09-09T11:02:49;11.85;72.56
67133;HTU21D;54052;53.542;49.408;2022-09-09T11:05:24;12.04;72.64
67133;HTU21D;54052;53.542;49.408;2022-09-09T11:08:01;12.35;72.19
67133;HTU21D;54052;53.542;49.408;2022-09-09T11:13:12;12.82;70.58
67133;HTU21D;54052;53.542;49.408;2022-09-09T11:15:44;12.93;68.78
67133;HTU21D;54052;53.542;49.408;2022-09-09T11:18:20;12.91;65.65
67133;HTU21D;54052;53.542;49.408;2022-09-09T11:20:50;13.12;67.40
67133;HTU21D;54052;53.542;49.408;2022-09-09T11:23:35;13.31;64.44
67133;HTU21D;54052;53.542;49.408;2022-09-09T11:26:04;13.35;63.21
67133;HTU21D;54052;53.542;49.408;2022-09-09T11:34:12;13.07;67.03
67133;HTU21D;54052;53.542;49.408;2022-09-09T11:39:35;12.58;67.30
67133;HTU21D;54052;53.542;49.408;2022-09-09T11:44:33;12.18;72.67
67133;HTU21D;54052;53.542;49.408;2022-09-09T11:46:59;11.92;74.70
67133;HTU21D;54052;53.542;49.408;2022-09-09T11:53:02;11.19;78.09
67133;HTU21D;54052;53.542;49.408;2022-09-09T11:54:57;11.08;78.05
67133;HTU21D;54052;53.542;49.408;2022-09-09T11:57:37;11.11;80.35
67133;HTU21D;54052;53.542;49.408;2022-09-09T12:00:04;11.07;78.30
67133;HTU21D;54052;53.542;49.408;2022-09-09T12:02:31;10.97;76.86
67133;HTU21D;54052;53.542;49.408;2022-09-09T12:05:05;10.97;77.94
67133;HTU21D;54052;53.542;49.408;2022-09-09T12:07:50;11.10;76.31
67133;HTU21D;54052;53.542;49.408;2022-09-09T12:10:39;11.13;76.15
67133;HTU21D;54052;53.542;49.408;2022-09-09T12:13:22;11.25;77.37
67133;HTU21D;54052;53.542;49.408;2022-09-09T12:15:51;11.38;76.20
67133;HTU21D;54052;53.542;49.408;2022-09-09T12:18:40;11.51;76.86
67133;HTU21D;54052;53.542;49.408;2022-09-09T12:21:38;11.73;75.64
67133;HTU21D;54052;53.542;49.408;2022-09-09T12:24:13;11.59;75.89
67133;HTU21D;54052;53.542;49.408;2022-09-09T12:27:03;11.33;77.64
67133;HTU21D;54052;53.542;49.408;2022-09-09T12:32:25;10.94;79.25
67133;HTU21D;54052;53.542;49.408;2022-09-09T12:34:58;10.85;79.76
67133;HTU21D;54052;53.542;49.408;2022-09-09T12:37:39;10.79;78.40
67133;HTU21D;54052;53.542;49.408;2022-09-09T12:40:19;10.65;78.56
67133;HTU21D;54052;53.542;49.408;2022-09-09T12:42:46;10.68;78.52
67133;HTU21D;54052;53.542;49.408;2022-09-09T12:45:26;10.56;79.54
67133;HTU21D;54052;53.542;49.408;2022-09-09T12:48:05;10.51;80.60
67133;HTU21D;54052;53.542;49.408;2022-09-09T12:50:35;10.39;81.31
67133;HTU21D;54052;53.542;49.408;2022-09-09T12:53:24;10.30;81.80
67133;HTU21D;54052;53.542;49.408;2022-09-09T12:55:56;10.26;81.77
67133;HTU21D;54052;53.542;49.408;2022-09-09T12:58:23;10.26;82.41
67133;HTU21D;54052;53.542;49.408;2022-09-09T13:00:54;10.26;83.02
67133;HTU21D;54052;53.542;49.408;2022-09-09T13:03:24;10.28;83.16
67133;HTU21D;54052;53.542;49.408;2022-09-09T13:05:57;10.26;82.66
67133;HTU21D;54052;53.542;49.408;2022-09-09T13:08:25;10.30;82.74
67133;HTU21D;54052;53.542;49.408;2022-09-09T13:11:00;10.71;82.64
67133;HTU21D;54052;53.542;49.408;2022-09-09T13:13:41;11.05;80.78
67133;HTU21D;54052;53.542;49.408;2022-09-09T13:19:02;11.18;80.80
67133;HTU21D;54052;53.542;49.408;2022-09-09T13:21:37;11.20;79.89
67133;HTU21D;54052;53.542;49.408;2022-09-09T13:27:02;10.95;79.39
67133;HTU21D;54052;53.542;49.408;2022-09-09T13:29:29;10.88;79.96
67133;HTU21D;54052;53.542;49.408;2022-09-09T13:32:06;10.85;79.98
67133;HTU21D;54052;53.542;49.408;2022-09-09T13:34:38;10.94;80.24
67133;HTU21D;54052;53.542;49.408;2022-09-09T13:37:06;10.95;80.14
67133;HTU21D;54052;53.542;49.408;2022-09-09T13:39:40;10.88;80.99
67133;HTU21D;54052;53.542;49.408;2022-09-09T13:42:19;10.78;80.58
67133;HTU21D;54052;53.542;49.408;2022-09-09T13:44:48;10.73;76.51
67133;HTU21D;54052;53.542;49.408;2022-09-09T13:47:41;10.66;76.37
67133;HTU21D;54052;53.542;49.408;2022-09-09T13:50:20;10.54;78.18
67133;HTU21D;54052;53.542;49.408;2022-09-09T13:52:47;10.45;79.11
67133;HTU21D;54052;53.542;49.408;2022-09-09T13:55:15;10.39;80.00
67133;HTU21D;54052;53.542;49.408;2022-09-09T13:57:57;10.34;81.54
67133;HTU21D;54052;53.542;49.408;2022-09-09T14:00:24;10.31;82.63
67133;HTU21D;54052;53.542;49.408;2022-09-09T14:02:51;10.29;82.62
67133;HTU21D;54052;53.542;49.408;2022-09-09T14:05:17;10.25;82.71
67133;HTU21D;54052;53.542;49.408;2022-09-09T14:07:45;10.19;81.88
67133;HTU21D;54052;53.542;49.408;2022-09-09T14:10:12;10.13;81.23
67133;HTU21D;54052;53.542;49.408;2022-09-09T14:12:38;10.11;80.09
67133;HTU21D;54052;53.542;49.408;2022-09-09T14:15:05;10.11;80.27
67133;HTU21D;54052;53.542;49.408;2022-09-09T14:17:32;10.05;80.40
67133;HTU21D;54052;53.542;49.408;2022-09-09T14:19:59;9.97;80.96
67133;HTU21D;54052;53.542;49.408;2022-09-09T14:22:25;9.94;81.20
67133;HTU21D;54052;53.542;49.408;2022-09-09T14:24:51;9.93;80.85
67133;HTU21D;54052;53.542;49.408;2022-09-09T14:27:17;9.86;81.79
67133;HTU21D;54052;53.542;49.408;2022-09-09T14:29:44;9.80;82.01
67133;HTU21D;54052;53.542;49.408;2022-09-09T14:32:11;9.79;82.46
67133;HTU21D;54052;53.542;49.408;2022-09-09T14:34:37;9.79;82.97
67133;HTU21D;54052;53.542;49.408;2022-09-09T14:37:04;9.79;83.52
67133;HTU21D;54052;53.542;49.408;2022-09-09T14:39:30;9.82;83.99
67133;HTU21D;54052;53.542;49.408;2022-09-09T14:41:56;9.84;84.50
67133;HTU21D;54052;53.542;49.408;2022-09-09T14:44:22;9.86;84.78
67133;HTU21D;54052;53.542;49.408;2022-09-09T14:46:48;9.88;84.66
67133;HTU21D;54052;53.542;49.408;2022-09-09T14:49:17;9.89;84.58
67133;HTU21D;54052;53.542;49.408;2022-09-09T14:51:43;9.86;84.64
67133;HTU21D;54052;53.542;49.408;2022-09-09T14:54:09;9.88;84.33
67133;HTU21D;54052;53.542;49.408;2022-09-09T14:56:37;9.83;84.10
67133;HTU21D;54052;53.542;49.408;2022-09-09T14:59:04;9.77;84.48
67133;HTU21D;54052;53.542;49.408;2022-09-09T15:01:33;9.71;84.61
67133;HTU21D;54052;53.542;49.408;2022-09-09T15:04:02;9.67;84.99
67133;HTU21D;54052;53.542;49.408;2022-09-09T15:06:31;9.62;85.46
67133;HTU21D;54052;53.542;49.408;2022-09-09T15:08:59;9.55;85.84
67133;HTU21D;54052;53.542;49.408;2022-09-09T15:11:27;9.53;85.75
67133;HTU21D;54052;53.542;49.408;2022-09-09T15:13:53;9.48;85.74
67133;HTU21D;54052;53.542;49.408;2022-09-09T15:16:21;9.42;86.16
67133;HTU21D;54052;53.542;49.408;2022-09-09T15:18:53;9.39;86.25
67133;HTU21D;54052;53.542;49.408;2022-09-09T15:21:21;9.40;86.49
67133;HTU21D;54052;53.542;49.408;2022-09-09T15:23:48;9.39;86.46
67133;HTU21D;54052;53.542;49.408;2022-09-09T15:26:15;9.35;86.61
67133;HTU21D;54052;53.542;49.408;2022-09-09T15:28:43;9.34;86.38
67133;HTU21D;54052;53.542;49.408;2022-09-09T15:31:12;9.33;86.58
67133;HTU21D;54052;53.542;49.408;2022-09-09T15:33:40;9.29;87.33
67133;HTU21D;54052;53.542;49.408;2022-09-09T15:36:21;9.23;87.40
67133;HTU21D;54052;53.542;49.408;2022-09-09T15:38:51;9.19;87.68
67133;HTU21D;54052;53.542;49.408;2022-09-09T15:41:18;9.18;87.32
67133;HTU21D;54052;53.542;49.408;2022-09-09T15:43:46;9.17;87.61
67133;HTU21D;54052;53.542;49.408;2022-09-09T15:46:24;9.17;87.42
67133;HTU21D;54052;53.542;49.408;2022-09-09T15:48:55;9.17;87.52
67133;HTU21D;54052;53.542;49.408;2022-09-09T15:51:23;9.12;87.51
67133;HTU21D;54052;53.542;49.408;2022-09-09T15:53:54;9.08;88.11
67133;HTU21D;54052;53.542;49.408;2022-09-09T15:56:22;9.03;88.28
67133;HTU21D;54052;53.542;49.408;2022-09-09T15:58:49;9.00;88.52
67133;HTU21D;54052;53.542;49.408;2022-09-09T16:01:15;8.96;88.80
67133;HTU21D;54052;53.542;49.408;2022-09-09T16:03:42;8.93;89.15
67133;HTU21D;54052;53.542;49.408;2022-09-09T16:06:12;8.93;89.32
67133;HTU21D;54052;53.542;49.408;2022-09-09T16:08:41;9.00;89.16
67133;HTU21D;54052;53.542;49.408;2022-09-09T16:11:16;9.05;88.94
67133;HTU21D;54052;53.542;49.408;2022-09-09T16:13:44;9.08;89.05
67133;HTU21D;54052;53.542;49.408;2022-09-09T16:16:14;9.12;88.89
67133;HTU21D;54052;53.542;49.408;2022-09-09T16:18:43;9.12;88.43
67133;HTU21D;54052;53.542;49.408;2022-09-09T16:21:19;9.19;88.41
67133;HTU21D;54052;53.542;49.408;2022-09-09T16:23:46;9.21;88.38
67133;HTU21D;54052;53.542;49.408;2022-09-09T16:26:15;9.24;88.28
67133;HTU21D;54052;53.542;49.408;2022-09-09T16:28:41;9.25;88.09
67133;HTU21D;54052;53.542;49.408;2022-09-09T16:31:08;9.26;88.06
67133;HTU21D;54052;53.542;49.408;2022-09-09T16:33:36;9.25;88.03
67133;HTU21D;54052;53.542;49.408;2022-09-09T16:36:11;9.24;87.49
67133;HTU21D;54052;53.542;49.408;2022-09-09T16:38:38;9.26;87.58
67133;HTU21D;54052;53.542;49.408;2022-09-09T16:41:06;9.29;87.67
67133;HTU21D;54052;53.542;49.408;2022-09-09T16:43:33;9.29;87.42
67133;HTU21D;54052;53.542;49.408;2022-09-09T16:46:00;9.34;87.80
67133;HTU21D;54052;53.542;49.408;2022-09-09T16:48:35;9.38;87.03
67133;HTU21D;54052;53.542;49.408;2022-09-09T16:51:06;9.37;87.22
67133;HTU21D;54052;53.542;49.408;2022-09-09T16:53:33;9.34;87.44
67133;HTU21D;54052;53.542;49.408;2022-09-09T16:56:11;9.33;87.70
67133;HTU21D;54052;53.542;49.408;2022-09-09T16:58:37;9.32;87.62
67133;HTU21D;54052;53.542;49.408;2022-09-09T17:01:04;9.32;87.32
67133;HTU21D;54052;53.542;49.408;2022-09-09T17:03:31;9.31;87.72
67133;HTU21D;54052;53.542;49.408;2022-09-09T17:05:58;9.32;87.25
67133;HTU21D;54052;53.542;49.408;2022-09-09T17:08:30;9.33;87.46
67133;HTU21D;54052;53.542;49.408;2022-09-09T17:10:57;9.31;87.54
67133;HTU21D;54052;53.542;49.408;2022-09-09T17:13:25;9.32;88.02
67133;HTU21D;54052;53.542;49.408;2022-09-09T17:15:51;9.32;87.44
67133;HTU21D;54052;53.542;49.408;2022-09-09T17:18:17;9.30;87.84
67133;HTU21D;54052;53.542;49.408;2022-09-09T17:20:43;9.32;87.75
67133;HTU21D;54052;53.542;49.408;2022-09-09T17:23:11;9.32;87.67
67133;HTU21D;54052;53.542;49.408;2022-09-09T17:25:37;9.33;87.46
67133;HTU21D;54052;53.542;49.408;2022-09-09T17:28:04;9.35;87.35
67133;HTU21D;54052;53.542;49.408;2022-09-09T17:30:34;9.36;87.46
67133;HTU21D;54052;53.542;49.408;2022-09-09T17:33:00;9.37;87.08
67133;HTU21D;54052;53.542;49.408;2022-09-09T17:35:26;9.68;90.51
67133;HTU21D;54052;53.542;49.408;2022-09-09T17:37:53;9.95;86.20
67133;HTU21D;54052;53.542;49.408;2022-09-09T17:40:23;9.71;87.95
67133;HTU21D;54052;53.542;49.408;2022-09-09T17:42:49;10.07;85.26